createdAt,value
2022-11-03T00:00:39.847Z,1017.12
2022-11-03T00:01:40.001Z,1017.07
2022-11-03T00:03:33.065Z,1017.06
2022-11-03T00:04:33.061Z,1017.09
2022-11-03T00:06:26.050Z,1017.08
2022-11-03T00:07:26.076Z,1017.04
2022-11-03T00:09:19.239Z,1017.04
2022-11-03T00:10:19.264Z,1017.15
2022-11-03T00:12:23.368Z,1017.06
2022-11-03T00:13:23.367Z,1017.07
2022-11-03T00:15:16.558Z,1017.03
2022-11-03T00:16:16.550Z,1017.03
2022-11-03T00:18:20.617Z,1017.01
2022-11-03T00:19:20.646Z,1016.97
2022-11-03T00:21:24.723Z,1016.97
2022-11-03T00:22:24.748Z,1016.92
2022-11-03T00:24:17.913Z,1016.91
2022-11-03T00:25:17.933Z,1016.90
2022-11-03T00:27:10.942Z,1016.85
2022-11-03T00:28:10.939Z,1016.84
2022-11-03T00:30:14.998Z,1016.90
2022-11-03T00:31:15.017Z,1016.86
2022-11-03T00:33:08.630Z,1016.88
2022-11-03T00:34:08.201Z,1016.92
2022-11-03T00:36:12.304Z,1016.96
2022-11-03T00:37:12.303Z,1016.96
2022-11-03T00:39:05.594Z,1016.94
2022-11-03T00:40:05.625Z,1016.90
2022-11-03T00:41:58.778Z,1016.91
2022-11-03T00:42:58.815Z,1016.88
2022-11-03T00:44:51.966Z,1016.86
2022-11-03T00:45:51.993Z,1016.83
2022-11-03T00:47:45.210Z,1016.80
2022-11-03T00:48:45.186Z,1016.79
2022-11-03T00:50:38.379Z,1016.74
2022-11-03T00:51:38.373Z,1016.73
2022-11-03T00:53:31.537Z,1016.76
2022-11-03T00:54:31.564Z,1016.77
2022-11-03T00:56:24.556Z,1016.72
2022-11-03T00:57:24.568Z,1016.71
2022-11-03T00:59:28.666Z,1016.72
2022-11-03T01:00:28.662Z,1016.68
2022-11-03T01:02:21.852Z,1016.65
2022-11-03T01:03:21.854Z,1016.62
2022-11-03T01:05:15.013Z,1016.62
2022-11-03T01:06:15.040Z,1016.63
2022-11-03T01:08:08.200Z,1016.59
2022-11-03T01:09:08.227Z,1016.56
2022-11-03T01:11:01.397Z,1016.56
2022-11-03T01:12:01.426Z,1016.60
2022-11-03T01:13:54.585Z,1016.57
2022-11-03T01:14:54.609Z,1016.54
2022-11-03T01:16:47.581Z,1016.59
2022-11-03T01:17:47.608Z,1016.60
2022-11-03T01:19:40.781Z,1016.55
2022-11-03T01:20:40.801Z,1016.55
2022-11-03T01:22:33.965Z,1016.55
2022-11-03T01:23:33.986Z,1016.53
2022-11-03T01:25:27.172Z,1016.53
2022-11-03T01:26:27.169Z,1016.52
2022-11-03T01:28:20.336Z,1016.50
2022-11-03T01:29:20.385Z,1016.55
2022-11-03T01:31:13.526Z,1016.59
2022-11-03T01:32:13.561Z,1016.60
2022-11-03T01:34:06.708Z,1016.63
2022-11-03T01:35:06.735Z,1016.62
2022-11-03T01:36:59.724Z,1016.61
2022-11-03T01:37:59.747Z,1016.63
2022-11-03T01:40:03.872Z,1016.62
2022-11-03T01:41:03.862Z,1016.57
2022-11-03T01:42:57.024Z,1016.56
2022-11-03T01:43:57.050Z,1016.52
2022-11-03T01:46:01.111Z,1016.50
2022-11-03T01:47:01.137Z,1016.50
2022-11-03T01:48:54.296Z,1016.46
2022-11-03T01:49:54.321Z,1016.48
2022-11-03T01:51:58.416Z,1016.50
2022-11-03T01:52:58.413Z,1016.50
2022-11-03T01:54:51.574Z,1016.55
2022-11-03T01:55:51.598Z,1016.52
2022-11-03T01:57:55.698Z,1016.47
2022-11-03T01:58:55.679Z,1016.53
2022-11-03T02:00:48.933Z,1016.49
2022-11-03T02:01:49.123Z,1016.48
2022-11-03T02:03:42.061Z,1016.36
2022-11-03T02:04:42.049Z,1016.30
2022-11-03T02:06:35.031Z,1016.27
2022-11-03T02:07:35.062Z,1016.28
2022-11-03T02:09:39.116Z,1016.27
2022-11-03T02:10:39.137Z,1016.23
2022-11-03T02:12:32.298Z,1016.23
2022-11-03T02:13:32.323Z,1016.21
2022-11-03T02:15:25.485Z,1016.22
2022-11-03T02:16:25.509Z,1016.19
2022-11-03T02:18:18.668Z,1016.19
2022-11-03T02:19:18.705Z,1016.18
2022-11-03T02:21:22.782Z,1016.15
2022-11-03T02:22:22.778Z,1016.13
2022-11-03T02:24:26.832Z,1016.10
2022-11-03T02:25:26.857Z,1016.08
2022-11-03T02:27:20.019Z,1016.07
2022-11-03T02:28:20.044Z,1016.11
2022-11-03T02:30:24.127Z,1016.07
2022-11-03T02:31:24.150Z,1016.05
2022-11-03T02:33:18.696Z,1016.06
2022-11-03T02:34:18.725Z,1016.04
2022-11-03T02:36:22.810Z,1015.96
2022-11-03T02:37:22.826Z,1015.97
2022-11-03T02:39:16.004Z,1015.97
2022-11-03T02:40:16.029Z,1015.99
2022-11-03T02:42:09.227Z,1016.00
2022-11-03T02:43:09.359Z,1016.08
2022-11-03T02:45:02.417Z,1016.02
2022-11-03T02:46:02.433Z,1016.09
2022-11-03T02:48:06.480Z,1016.16
2022-11-03T02:49:06.509Z,1016.03
2022-11-03T02:51:10.588Z,1016.05
2022-11-03T02:52:10.610Z,1016.02
2022-11-03T02:53:10.639Z,1016.04
2022-11-03T02:54:10.672Z,1016.01
2022-11-03T02:55:10.701Z,1015.99
2022-11-03T02:56:10.731Z,1016.01
2022-11-03T02:57:10.762Z,1016.00
2022-11-03T02:58:10.792Z,1015.96
2022-11-03T02:59:10.821Z,1015.96
2022-11-03T03:00:10.857Z,1015.88
2022-11-03T03:01:10.966Z,1015.93
2022-11-03T03:02:11.091Z,1015.92
2022-11-03T03:03:10.945Z,1015.86
2022-11-03T03:04:10.976Z,1015.90
2022-11-03T03:05:11.008Z,1015.90
2022-11-03T03:06:11.035Z,1015.81
2022-11-03T03:07:11.074Z,1015.82
2022-11-03T03:08:11.099Z,1015.89
2022-11-03T03:09:11.128Z,1015.87
2022-11-03T03:10:11.158Z,1015.78
2022-11-03T03:11:11.192Z,1015.79
2022-11-03T03:12:11.236Z,1015.77
2022-11-03T03:13:11.256Z,1015.78
2022-11-03T03:14:11.282Z,1015.78
2022-11-03T03:15:11.314Z,1015.81
2022-11-03T03:16:11.343Z,1015.75
2022-11-03T03:17:11.374Z,1015.80
2022-11-03T03:18:11.432Z,1015.80
2022-11-03T03:19:11.436Z,1015.80
2022-11-03T03:20:11.467Z,1015.83
2022-11-03T03:21:11.501Z,1015.78
2022-11-03T03:22:11.527Z,1015.82
2022-11-03T03:23:11.916Z,1015.86
2022-11-03T03:24:11.593Z,1015.82
2022-11-03T03:26:43.489Z,1015.76
2022-11-03T03:27:43.516Z,1015.79
2022-11-03T03:29:47.593Z,1015.77
2022-11-03T03:30:47.619Z,1015.82
2022-11-03T03:32:40.809Z,1015.83
2022-11-03T03:33:43.478Z,1015.80
2022-11-03T03:35:33.959Z,1015.77
2022-11-03T03:36:33.989Z,1015.84
2022-11-03T03:38:27.179Z,1015.77
2022-11-03T03:39:27.175Z,1015.75
2022-11-03T03:41:20.329Z,1015.69
2022-11-03T03:42:20.358Z,1015.71
2022-11-03T03:44:24.532Z,1015.73
2022-11-03T03:45:24.450Z,1015.75
2022-11-03T03:47:28.556Z,1015.68
2022-11-03T03:48:28.531Z,1015.64
2022-11-03T03:50:21.690Z,1015.63
2022-11-03T03:51:21.716Z,1015.61
2022-11-03T03:53:14.910Z,1015.62
2022-11-03T03:54:14.898Z,1015.63
2022-11-03T03:56:08.074Z,1015.63
2022-11-03T03:57:08.088Z,1015.68
2022-11-03T03:59:01.291Z,1015.61
2022-11-03T04:00:01.272Z,1015.68
2022-11-03T04:01:54.594Z,1015.61
2022-11-03T04:02:54.477Z,1015.62
2022-11-03T04:04:47.635Z,1015.60
2022-11-03T04:05:47.661Z,1015.58
2022-11-03T04:07:43.617Z,1015.59
2022-11-03T04:08:40.844Z,1015.57
2022-11-03T04:10:34.013Z,1015.54
2022-11-03T04:11:34.040Z,1015.57
2022-11-03T04:13:27.196Z,1015.51
2022-11-03T04:14:27.222Z,1015.57
2022-11-03T04:16:20.191Z,1015.54
2022-11-03T04:17:20.214Z,1015.56
2022-11-03T04:19:24.286Z,1015.53
2022-11-03T04:20:24.312Z,1015.53
2022-11-03T04:22:17.476Z,1015.55
2022-11-03T04:23:17.501Z,1015.54
2022-11-03T04:25:10.687Z,1015.53
2022-11-03T04:26:10.683Z,1015.55
2022-11-03T04:28:04.402Z,1015.57
2022-11-03T04:29:03.859Z,1015.59
2022-11-03T04:30:58.773Z,1015.51
2022-11-03T04:31:57.047Z,1015.54
2022-11-03T04:33:50.208Z,1015.47
2022-11-03T04:34:50.230Z,1015.43
2022-11-03T04:36:43.211Z,1015.38
2022-11-03T04:37:47.379Z,1015.39
2022-11-03T04:39:36.468Z,1015.40
2022-11-03T04:40:36.421Z,1015.39
2022-11-03T04:42:40.509Z,1015.35
2022-11-03T04:43:40.532Z,1015.30
2022-11-03T04:45:44.588Z,1015.28
2022-11-03T04:46:44.614Z,1015.28
2022-11-03T04:48:37.810Z,1015.27
2022-11-03T04:49:37.799Z,1015.24
2022-11-03T04:51:30.991Z,1015.25
2022-11-03T04:52:30.982Z,1015.22
2022-11-03T04:54:35.041Z,1015.13
2022-11-03T04:55:35.063Z,1015.10
2022-11-03T04:57:39.120Z,1015.09
2022-11-03T04:58:39.143Z,1015.08
2022-11-03T05:00:32.306Z,1015.02
2022-11-03T05:01:32.534Z,1015.01
2022-11-03T05:03:25.518Z,1015.01
2022-11-03T05:04:25.519Z,1015.01
2022-11-03T05:06:18.499Z,1015.03
2022-11-03T05:07:18.526Z,1015.05
2022-11-03T05:09:11.715Z,1015.03
2022-11-03T05:10:11.705Z,1015.02
2022-11-03T05:12:04.863Z,1015.02
2022-11-03T05:13:05.190Z,1014.98
2022-11-03T05:14:58.937Z,1014.95
2022-11-03T05:15:58.076Z,1014.96
2022-11-03T05:17:51.323Z,1014.89
2022-11-03T05:18:51.348Z,1014.86
2022-11-03T05:20:44.510Z,1014.85
2022-11-03T05:21:44.531Z,1014.81
2022-11-03T05:23:44.842Z,1014.78
2022-11-03T05:24:37.712Z,1014.78
2022-11-03T05:26:30.740Z,1014.70
2022-11-03T05:27:30.734Z,1014.70
2022-11-03T05:29:34.806Z,1014.66
2022-11-03T05:30:34.797Z,1014.63
2022-11-03T05:32:38.830Z,1014.58
2022-11-03T05:33:38.858Z,1014.60
2022-11-03T05:35:42.889Z,1014.59
2022-11-03T05:36:42.923Z,1014.58
2022-11-03T05:38:35.910Z,1014.59
2022-11-03T05:39:35.931Z,1014.56
2022-11-03T05:41:51.055Z,1014.53
2022-11-03T05:42:51.077Z,1014.53
2022-11-03T05:44:44.029Z,1014.48
2022-11-03T05:45:44.050Z,1014.51
2022-11-03T05:46:44.080Z,1014.48
2022-11-03T05:47:44.114Z,1014.51
2022-11-03T05:48:44.140Z,1014.50
2022-11-03T05:49:44.172Z,1014.55
2022-11-03T05:50:44.201Z,1014.53
2022-11-03T05:51:44.234Z,1014.56
2022-11-03T05:52:44.261Z,1014.63
2022-11-03T05:53:44.293Z,1014.58
2022-11-03T05:54:44.322Z,1014.62
2022-11-03T05:55:44.354Z,1014.57
2022-11-03T05:56:44.395Z,1014.53
2022-11-03T05:57:44.414Z,1014.55
2022-11-03T05:58:44.443Z,1014.56
2022-11-03T05:59:44.478Z,1014.57
2022-11-03T06:00:48.614Z,1014.57
2022-11-03T06:01:44.644Z,1014.52
2022-11-03T06:02:44.615Z,1014.56
2022-11-03T06:03:44.595Z,1014.60
2022-11-03T06:04:44.625Z,1014.57
2022-11-03T06:05:44.657Z,1014.56
2022-11-03T06:06:44.687Z,1014.64
2022-11-03T06:07:44.718Z,1014.65
2022-11-03T06:08:46.055Z,1014.69
2022-11-03T06:09:44.779Z,1014.76
2022-11-03T06:10:44.809Z,1014.76
2022-11-03T06:11:44.838Z,1014.75
2022-11-03T06:12:44.868Z,1014.78
2022-11-03T06:13:44.899Z,1014.82
2022-11-03T06:14:44.929Z,1014.81
2022-11-03T06:15:44.960Z,1014.81
2022-11-03T06:16:44.989Z,1014.78
2022-11-03T06:17:45.025Z,1014.74
2022-11-03T06:18:45.050Z,1014.81
2022-11-03T06:19:45.082Z,1014.78
2022-11-03T06:20:45.111Z,1014.78
2022-11-03T06:21:45.142Z,1014.80
2022-11-03T06:22:45.172Z,1014.82
2022-11-03T06:23:45.203Z,1014.83
2022-11-03T06:24:45.231Z,1014.84
2022-11-03T06:25:45.265Z,1014.88
2022-11-03T06:26:45.295Z,1014.85
2022-11-03T06:27:45.324Z,1014.88
2022-11-03T06:28:45.357Z,1014.89
2022-11-03T06:29:45.385Z,1014.91
2022-11-03T06:30:45.426Z,1014.93
2022-11-03T06:31:45.446Z,1014.91
2022-11-03T06:32:45.475Z,1014.86
2022-11-03T06:33:45.506Z,1014.85
2022-11-03T06:34:45.535Z,1014.85
2022-11-03T06:35:45.569Z,1014.82
2022-11-03T06:36:45.598Z,1014.83
2022-11-03T06:37:45.629Z,1014.78
2022-11-03T06:38:45.657Z,1014.78
2022-11-03T06:39:45.687Z,1014.78
2022-11-03T06:40:45.717Z,1014.73
2022-11-03T06:41:45.749Z,1014.69
2022-11-03T06:42:45.778Z,1014.68
2022-11-03T06:43:45.810Z,1014.66
2022-11-03T06:44:45.837Z,1014.64
2022-11-03T06:45:45.870Z,1014.59
2022-11-03T06:46:45.903Z,1014.58
2022-11-03T06:47:45.930Z,1014.54
2022-11-03T06:48:45.963Z,1014.55
2022-11-03T06:49:45.990Z,1014.56
2022-11-03T06:50:46.021Z,1014.52
2022-11-03T06:51:46.052Z,1014.50
2022-11-03T06:52:46.115Z,1014.51
2022-11-03T06:53:46.115Z,1014.53
2022-11-03T06:54:46.142Z,1014.49
2022-11-03T06:55:46.173Z,1014.48
2022-11-03T06:56:46.200Z,1014.44
2022-11-03T06:57:46.247Z,1014.45
2022-11-03T06:58:46.262Z,1014.45
2022-11-03T06:59:46.294Z,1014.46
2022-11-03T07:00:50.991Z,1014.44
2022-11-03T07:01:46.525Z,1014.44
2022-11-03T07:02:46.386Z,1014.42
2022-11-03T07:03:46.417Z,1014.44
2022-11-03T07:04:46.444Z,1014.42
2022-11-03T07:05:46.479Z,1014.45
2022-11-03T07:06:50.502Z,1014.44
2022-11-03T07:07:46.544Z,1014.47
2022-11-03T07:08:46.568Z,1014.47
2022-11-03T07:09:46.598Z,1014.47
2022-11-03T07:10:46.626Z,1014.47
2022-11-03T07:11:46.659Z,1014.50
2022-11-03T07:12:46.688Z,1014.48
2022-11-03T07:13:46.723Z,1014.43
2022-11-03T07:14:46.750Z,1014.47
2022-11-03T07:15:46.781Z,1014.44
2022-11-03T07:16:46.811Z,1014.45
2022-11-03T07:17:46.842Z,1014.46
2022-11-03T07:18:46.873Z,1014.47
2022-11-03T07:19:46.900Z,1014.46
2022-11-03T07:20:46.931Z,1014.47
2022-11-03T07:21:46.964Z,1014.44
2022-11-03T07:22:46.992Z,1014.49
2022-11-03T07:23:47.389Z,1014.46
2022-11-03T07:24:47.053Z,1014.45
2022-11-03T07:25:47.083Z,1014.42
2022-11-03T07:26:47.113Z,1014.46
2022-11-03T07:27:47.143Z,1014.46
2022-11-03T07:28:47.177Z,1014.47
2022-11-03T07:29:47.204Z,1014.49
2022-11-03T07:30:47.235Z,1014.48
2022-11-03T07:31:47.263Z,1014.51
2022-11-03T07:32:47.295Z,1014.51
2022-11-03T07:33:47.328Z,1014.49
2022-11-03T07:34:47.356Z,1014.48
2022-11-03T07:36:13.692Z,1014.51
2022-11-03T07:36:51.347Z,1014.52
2022-11-03T07:37:47.452Z,1014.49
2022-11-03T07:38:47.481Z,1014.49
2022-11-03T07:39:47.511Z,1014.51
2022-11-03T07:40:47.538Z,1014.55
2022-11-03T07:41:47.576Z,1014.49
2022-11-03T07:42:47.601Z,1014.54
2022-11-03T07:43:47.632Z,1014.54
2022-11-03T07:44:47.662Z,1014.51
2022-11-03T07:45:47.692Z,1014.57
2022-11-03T07:46:47.721Z,1014.51
2022-11-03T07:47:47.753Z,1014.54
2022-11-03T07:48:47.790Z,1014.49
2022-11-03T07:49:47.812Z,1014.49
2022-11-03T07:50:47.849Z,1014.47
2022-11-03T07:51:47.874Z,1014.46
2022-11-03T07:52:47.905Z,1014.39
2022-11-03T07:53:47.938Z,1014.44
2022-11-03T07:54:47.990Z,1014.42
2022-11-03T07:55:48.084Z,1014.37
2022-11-03T07:56:48.027Z,1014.34
2022-11-03T07:57:48.058Z,1014.32
2022-11-03T07:58:48.088Z,1014.31
2022-11-03T07:59:48.122Z,1014.30
2022-11-03T08:00:48.150Z,1014.29
2022-11-03T08:01:48.253Z,1014.26
2022-11-03T08:02:48.283Z,1014.28
2022-11-03T08:03:48.244Z,1014.17
2022-11-03T08:04:48.272Z,1014.16
2022-11-03T08:05:48.305Z,1014.17
2022-11-03T08:06:48.334Z,1014.20
2022-11-03T08:07:48.364Z,1014.23
2022-11-03T08:08:48.405Z,1014.13
2022-11-03T08:09:48.426Z,1014.12
2022-11-03T08:10:48.458Z,1014.06
2022-11-03T08:11:48.488Z,1014.11
2022-11-03T08:12:48.522Z,1014.04
2022-11-03T08:13:48.549Z,1014.03
2022-11-03T08:14:48.579Z,1014.01
2022-11-03T08:15:48.611Z,1014.04
2022-11-03T08:16:48.640Z,1014.03
2022-11-03T08:17:52.113Z,1013.99
2022-11-03T08:18:48.707Z,1014.00
2022-11-03T08:19:48.734Z,1013.94
2022-11-03T08:20:48.763Z,1014.00
2022-11-03T08:21:48.795Z,1013.96
2022-11-03T08:22:59.264Z,1013.93
2022-11-03T08:23:48.856Z,1013.96
2022-11-03T08:24:48.889Z,1013.89
2022-11-03T08:25:48.922Z,1013.90
2022-11-03T08:26:49.200Z,1013.87
2022-11-03T08:27:48.986Z,1013.86
2022-11-03T08:28:49.010Z,1013.84
2022-11-03T08:29:49.043Z,1013.76
2022-11-03T08:30:49.073Z,1013.78
2022-11-03T08:31:49.122Z,1013.79
2022-11-03T08:32:49.135Z,1013.79
2022-11-03T08:33:49.168Z,1013.82
2022-11-03T08:34:49.205Z,1013.79
2022-11-03T08:35:49.228Z,1013.77
2022-11-03T08:36:49.257Z,1013.74
2022-11-03T08:37:49.290Z,1013.73
2022-11-03T08:38:49.322Z,1013.75
2022-11-03T08:39:49.350Z,1013.73
2022-11-03T08:40:54.232Z,1013.72
2022-11-03T08:41:49.451Z,1013.69
2022-11-03T08:42:49.462Z,1013.74
2022-11-03T08:43:49.478Z,1013.69
2022-11-03T08:44:49.505Z,1013.72
2022-11-03T08:45:49.536Z,1013.68
2022-11-03T08:46:49.569Z,1013.72
2022-11-03T08:47:49.599Z,1013.69
2022-11-03T08:48:49.632Z,1013.69
2022-11-03T08:49:49.660Z,1013.65
2022-11-03T08:50:49.692Z,1013.64
2022-11-03T08:51:49.722Z,1013.58
2022-11-03T08:52:49.755Z,1013.56
2022-11-03T08:53:49.789Z,1013.57
2022-11-03T08:54:49.870Z,1013.55
2022-11-03T08:55:49.848Z,1013.55
2022-11-03T08:56:49.880Z,1013.51
2022-11-03T08:57:49.912Z,1013.47
2022-11-03T08:58:49.947Z,1013.50
2022-11-03T08:59:49.974Z,1013.46
2022-11-03T09:00:50.029Z,1013.45
2022-11-03T09:01:50.090Z,1013.45
2022-11-03T09:02:50.069Z,1013.42
2022-11-03T09:03:50.151Z,1013.38
2022-11-03T09:04:50.132Z,1013.31
2022-11-03T09:05:50.164Z,1013.31
2022-11-03T09:06:50.197Z,1013.34
2022-11-03T09:10:50.322Z,1013.32
2022-11-03T09:11:50.351Z,1013.32
2022-11-03T09:12:50.385Z,1013.35
2022-11-03T09:13:50.415Z,1013.27
2022-11-03T09:14:50.530Z,1013.24
2022-11-03T09:15:50.482Z,1013.26
2022-11-03T09:16:50.568Z,1013.24
2022-11-03T09:17:50.546Z,1013.25
2022-11-03T09:18:50.579Z,1013.20
2022-11-03T09:19:50.608Z,1013.25
2022-11-03T09:20:50.645Z,1013.23
2022-11-03T09:21:50.674Z,1013.18
2022-11-03T09:22:50.707Z,1013.15
2022-11-03T09:23:50.737Z,1013.14
2022-11-03T09:24:50.772Z,1013.09
2022-11-03T09:25:50.803Z,1013.05
2022-11-03T09:26:50.837Z,1013.07
2022-11-03T09:27:50.870Z,1013.03
2022-11-03T09:28:50.903Z,1013.05
2022-11-03T09:30:11.745Z,1013.01
2022-11-03T09:30:50.967Z,1013.04
2022-11-03T09:31:50.999Z,1013.01
2022-11-03T09:32:51.033Z,1013.00
2022-11-03T09:33:51.064Z,1012.92
2022-11-03T09:34:51.099Z,1012.91
2022-11-03T09:35:51.129Z,1012.88
2022-11-03T09:36:53.332Z,1012.91
2022-11-03T09:37:51.196Z,1012.83
2022-11-03T09:38:51.230Z,1012.83
2022-11-03T09:39:51.262Z,1012.85
2022-11-03T09:40:51.297Z,1012.79
2022-11-03T09:41:58.099Z,1012.82
2022-11-03T09:42:51.359Z,1012.78
2022-11-03T09:43:51.391Z,1012.74
2022-11-03T09:44:51.427Z,1012.75
2022-11-03T09:45:51.458Z,1012.79
2022-11-03T09:46:55.409Z,1012.78
2022-11-03T09:47:51.524Z,1012.83
2022-11-03T09:48:51.560Z,1012.84
2022-11-03T09:49:51.589Z,1012.80
2022-11-03T09:50:51.625Z,1012.83
2022-11-03T09:51:51.655Z,1012.77
2022-11-03T09:52:51.921Z,1012.79
2022-11-03T09:53:51.726Z,1012.76
2022-11-03T09:54:51.756Z,1012.74
2022-11-03T09:55:51.789Z,1012.75
2022-11-03T09:56:51.822Z,1012.77
2022-11-03T09:57:51.855Z,1012.74
2022-11-03T09:58:54.521Z,1012.71
2022-11-03T09:59:51.920Z,1012.78
2022-11-03T10:00:51.992Z,1012.69
2022-11-03T10:01:52.080Z,1012.68
2022-11-03T10:02:52.028Z,1012.74
2022-11-03T10:03:52.056Z,1012.67
2022-11-03T10:04:52.133Z,1012.72
2022-11-03T10:05:52.119Z,1012.64
2022-11-03T10:06:52.154Z,1012.62
2022-11-03T10:07:52.240Z,1012.60
2022-11-03T10:08:52.222Z,1012.64
2022-11-03T10:09:52.255Z,1012.62
2022-11-03T10:10:52.292Z,1012.56
2022-11-03T10:11:52.323Z,1012.58
2022-11-03T10:12:52.358Z,1012.62
2022-11-03T10:13:52.392Z,1012.66
2022-11-03T10:14:52.431Z,1012.60
2022-11-03T10:15:52.464Z,1012.56
2022-11-03T10:16:53.561Z,1012.53
2022-11-03T10:17:52.535Z,1012.47
2022-11-03T10:18:52.570Z,1012.43
2022-11-03T10:19:52.606Z,1012.43
2022-11-03T10:20:52.647Z,1012.47
2022-11-03T10:21:52.678Z,1012.39
2022-11-03T10:22:52.726Z,1012.41
2022-11-03T10:23:52.750Z,1012.42
2022-11-03T10:24:52.789Z,1012.46
2022-11-03T10:25:52.825Z,1012.39
2022-11-03T10:26:52.864Z,1012.38
2022-11-03T10:27:52.898Z,1012.33
2022-11-03T10:28:52.936Z,1012.35
2022-11-03T10:29:57.918Z,1012.34
2022-11-03T10:31:13.713Z,1012.24
2022-11-03T10:31:53.044Z,1012.27
2022-11-03T10:32:53.083Z,1012.23
2022-11-03T10:33:53.122Z,1012.21
2022-11-03T10:34:53.159Z,1012.18
2022-11-03T10:35:53.201Z,1012.18
2022-11-03T10:36:53.230Z,1012.10
2022-11-03T10:37:53.268Z,1012.13
2022-11-03T10:38:53.305Z,1012.11
2022-11-03T10:39:53.339Z,1012.10
2022-11-03T10:40:53.378Z,1012.07
2022-11-03T10:41:53.414Z,1012.19
2022-11-03T10:42:53.451Z,1012.07
2022-11-03T10:43:53.488Z,1012.05
2022-11-03T10:44:53.534Z,1012.03
2022-11-03T10:45:53.562Z,1012.05
2022-11-03T10:46:53.598Z,1011.97
2022-11-03T10:47:58.058Z,1011.94
2022-11-03T10:48:53.720Z,1011.98
2022-11-03T10:49:53.714Z,1011.92
2022-11-03T10:50:53.746Z,1011.94
2022-11-03T10:51:53.783Z,1011.97
2022-11-03T10:52:53.818Z,1011.95
2022-11-03T10:53:53.853Z,1011.92
2022-11-03T10:54:53.892Z,1011.84
2022-11-03T10:55:53.926Z,1011.89
2022-11-03T10:56:53.976Z,1011.86
2022-11-03T10:57:54.002Z,1011.82
2022-11-03T10:58:54.089Z,1011.82
2022-11-03T10:59:54.071Z,1011.84
2022-11-03T11:00:54.198Z,1011.80
2022-11-03T11:01:54.257Z,1011.73
2022-11-03T11:02:54.179Z,1011.73
2022-11-03T11:03:54.288Z,1011.73
2022-11-03T11:04:54.257Z,1011.68
2022-11-03T11:05:54.288Z,1011.65
2022-11-03T11:06:54.328Z,1011.64
2022-11-03T11:07:54.412Z,1011.65
2022-11-03T11:08:58.877Z,1011.60
2022-11-03T11:09:54.433Z,1011.56
2022-11-03T11:10:54.467Z,1011.58
2022-11-03T11:11:54.501Z,1011.49
2022-11-03T11:12:54.539Z,1011.55
2022-11-03T11:13:54.571Z,1011.50
2022-11-03T11:14:54.609Z,1011.50
2022-11-03T11:15:54.647Z,1011.52
2022-11-03T11:16:54.679Z,1011.53
2022-11-03T11:17:54.712Z,1011.50
2022-11-03T11:18:54.749Z,1011.47
2022-11-03T11:19:54.783Z,1011.43
2022-11-03T11:20:54.818Z,1011.44
2022-11-03T11:21:54.854Z,1011.41
2022-11-03T11:22:54.889Z,1011.42
2022-11-03T11:23:54.923Z,1011.42
2022-11-03T11:24:54.959Z,1011.37
2022-11-03T11:25:54.994Z,1011.35
2022-11-03T11:26:55.030Z,1011.31
2022-11-03T11:27:57.965Z,1011.29
2022-11-03T11:28:55.097Z,1011.33
2022-11-03T11:29:55.135Z,1011.24
2022-11-03T11:30:55.171Z,1011.23
2022-11-03T11:31:55.202Z,1011.17
2022-11-03T11:32:55.237Z,1011.16
2022-11-03T11:33:55.273Z,1011.15
2022-11-03T11:34:55.306Z,1011.14
2022-11-03T11:35:59.081Z,1011.11
2022-11-03T11:36:55.382Z,1011.08
2022-11-03T11:37:55.409Z,1011.08
2022-11-03T11:38:55.478Z,1011.10
2022-11-03T11:39:55.482Z,1011.13
2022-11-03T11:40:55.514Z,1011.11
2022-11-03T11:41:55.546Z,1011.11
2022-11-03T11:42:55.583Z,1011.09
2022-11-03T11:43:55.612Z,1011.04
2022-11-03T11:44:55.652Z,1011.05
2022-11-03T11:45:55.683Z,1011.05
2022-11-03T11:46:55.718Z,1011.02
2022-11-03T11:47:55.751Z,1011.05
2022-11-03T11:48:55.786Z,1011.02
2022-11-03T11:49:55.819Z,1010.96
2022-11-03T11:50:55.859Z,1010.99
2022-11-03T11:51:55.887Z,1010.88
2022-11-03T11:52:55.922Z,1010.88
2022-11-03T11:54:16.607Z,1010.83
2022-11-03T11:54:55.991Z,1010.79
2022-11-03T11:55:56.042Z,1010.82
2022-11-03T11:56:56.058Z,1010.75
2022-11-03T11:57:56.090Z,1010.81
2022-11-03T11:58:56.126Z,1010.76
2022-11-03T11:59:56.158Z,1010.79
2022-11-03T12:00:56.192Z,1010.72
2022-11-03T12:01:56.383Z,1010.72
2022-11-03T12:02:56.262Z,1010.67
2022-11-03T12:03:56.425Z,1010.74
2022-11-03T12:04:56.328Z,1010.67
2022-11-03T12:05:56.361Z,1010.67
2022-11-03T12:06:56.401Z,1010.69
2022-11-03T12:07:56.432Z,1010.64
2022-11-03T12:08:56.474Z,1010.60
2022-11-03T12:09:56.504Z,1010.63
2022-11-03T12:10:56.588Z,1010.59
2022-11-03T12:11:57.709Z,1010.63
2022-11-03T12:12:56.597Z,1010.55
2022-11-03T12:13:56.628Z,1010.63
2022-11-03T12:14:56.671Z,1010.54
2022-11-03T12:15:56.702Z,1010.56
2022-11-03T12:16:56.748Z,1010.56
2022-11-03T12:17:56.764Z,1010.53
2022-11-03T12:18:56.799Z,1010.52
2022-11-03T12:19:56.831Z,1010.50
2022-11-03T12:20:56.865Z,1010.49
2022-11-03T12:21:56.896Z,1010.44
2022-11-03T12:22:56.936Z,1010.41
2022-11-03T12:23:56.965Z,1010.36
2022-11-03T12:24:56.998Z,1010.38
2022-11-03T12:25:57.031Z,1010.41
2022-11-03T12:26:57.065Z,1010.37
2022-11-03T12:27:57.101Z,1010.50
2022-11-03T12:28:57.133Z,1010.42
2022-11-03T12:29:57.164Z,1010.40
2022-11-03T12:30:57.250Z,1010.39
2022-11-03T12:31:57.231Z,1010.40
2022-11-03T12:32:57.266Z,1010.38
2022-11-03T12:33:57.303Z,1010.36
2022-11-03T12:34:57.332Z,1010.38
2022-11-03T12:35:57.365Z,1010.37
2022-11-03T12:36:57.400Z,1010.34
2022-11-03T12:37:57.433Z,1010.35
2022-11-03T12:38:57.465Z,1010.36
2022-11-03T12:39:57.498Z,1010.33
2022-11-03T12:40:57.542Z,1010.31
2022-11-03T12:41:57.566Z,1010.31
2022-11-03T12:42:57.601Z,1010.31
2022-11-03T12:43:57.773Z,1010.28
2022-11-03T12:44:57.665Z,1010.27
2022-11-03T12:45:57.700Z,1010.33
2022-11-03T12:46:57.734Z,1010.25
2022-11-03T12:47:57.765Z,1010.25
2022-11-03T12:48:57.869Z,1010.25
2022-11-03T12:49:57.833Z,1010.24
2022-11-03T12:50:57.866Z,1010.27
2022-11-03T12:51:57.926Z,1010.27
2022-11-03T12:52:57.934Z,1010.25
2022-11-03T12:53:57.970Z,1010.19
2022-11-03T12:54:57.999Z,1010.22
2022-11-03T12:55:58.033Z,1010.14
2022-11-03T12:56:58.077Z,1010.12
2022-11-03T12:57:58.099Z,1010.14
2022-11-03T12:58:58.134Z,1010.14
2022-11-03T12:59:58.167Z,1010.04
2022-11-03T13:01:01.778Z,1010.13
2022-11-03T13:01:58.409Z,1010.05
2022-11-03T13:02:58.373Z,1010.07
2022-11-03T13:03:58.299Z,1010.10
2022-11-03T13:04:58.331Z,1010.06
2022-11-03T13:05:58.365Z,1010.05
2022-11-03T13:06:58.399Z,1010.00
2022-11-03T13:07:58.432Z,1009.96
2022-11-03T13:08:58.465Z,1009.96
2022-11-03T13:09:58.501Z,1009.95
2022-11-03T13:10:58.530Z,1009.92
2022-11-03T13:11:58.564Z,1009.89
2022-11-03T13:12:58.597Z,1009.86
2022-11-03T13:13:58.631Z,1009.81
2022-11-03T13:14:58.665Z,1009.80
2022-11-03T13:15:58.718Z,1009.75
2022-11-03T13:16:58.731Z,1009.77
2022-11-03T13:18:12.812Z,1009.71
2022-11-03T13:18:58.797Z,1009.68
2022-11-03T13:19:58.999Z,1009.68
2022-11-03T13:20:58.863Z,1009.66
2022-11-03T13:21:58.920Z,1009.59
2022-11-03T13:22:58.941Z,1009.59
2022-11-03T13:23:58.974Z,1009.57
2022-11-03T13:24:58.995Z,1009.53
2022-11-03T13:25:59.084Z,1009.54
2022-11-03T13:26:59.066Z,1009.51
2022-11-03T13:27:59.096Z,1009.51
2022-11-03T13:28:59.133Z,1009.50
2022-11-03T13:29:59.162Z,1009.50
2022-11-03T13:30:59.218Z,1009.50
2022-11-03T13:31:59.236Z,1009.49
2022-11-03T13:32:59.268Z,1009.47
2022-11-03T13:33:59.297Z,1009.45
2022-11-03T13:34:59.329Z,1009.42
2022-11-03T13:35:59.466Z,1009.42
2022-11-03T13:36:59.397Z,1009.39
2022-11-03T13:37:59.431Z,1009.35
2022-11-03T13:38:59.474Z,1009.35
2022-11-03T13:39:59.499Z,1009.33
2022-11-03T13:41:05.292Z,1009.28
2022-11-03T13:41:59.565Z,1009.29
2022-11-03T13:42:59.608Z,1009.22
2022-11-03T13:43:59.632Z,1009.23
2022-11-03T13:44:59.664Z,1009.24
2022-11-03T13:45:59.699Z,1009.15
2022-11-03T13:46:59.731Z,1009.19
2022-11-03T13:50:13.605Z,1009.05
2022-11-03T13:50:59.937Z,1009.01